Terminal Aerodrome Forecast
Issued by NWS Duluth, MN

Home | Current Version | Previous Version | Text Only | Print | Product List | Glossary On
Versions: 1 2 3 4 5 6 7 8 9 10 11 12 13 14 15 16 17 18 19 20 21 22 23 24 25 26
418
FTUS43 KDLH 220818 AAA
TAFINL
TAF AMD
KINL 220818Z 2208/2306 02007KT P6SM BKN100
     FM221000 00000KT 2SM BR OVC010
     FM221200 02005KT 1SM -RASNPL BR OVC010
     FM221600 02007KT 4SM BR VCSH OVC010
     FM230000 36009KT P6SM BKN015
     FM230300 35008KT P6SM BKN008=

USA.gov is the U.S. government's official web portal to all federal, state and local government web resources and services.